Time;durP1;ratioP1;P1;durP2;ratioP2;P2;SDS_P1;SDS_P2;PMS_P1;PMS_P2;Temp;Humidity;BMP_temperature;BMP_pressure;BME280_temperature;BME280_humidity;BME280_pressure;Samples;Min_cycle;Max_cycle;Signal;HPM_P1;HPM_P2
2023/06/25 00:00:10;;;;;;;;;7.25;5.25;;;;;24.10;45.06;101220.94;5073416;28;73867;-72
2023/06/25 00:02:35;;;;;;;;;7.00;7.00;;;;;24.07;44.92;101220.19;5060020;28;45597;-73
2023/06/25 00:05:01;;;;;;;;;12.75;9.75;;;;;24.07;44.92;101235.41;5076425;28;45297;-72
2023/06/25 00:07:26;;;;;;;;;9.50;7.00;;;;;24.01;44.89;101218.00;5080079;27;65812;-72
2023/06/25 00:09:53;;;;;;;;;10.00;7.00;;;;;24.04;44.90;101228.44;5075173;27;46401;-73
2023/06/25 00:12:19;;;;;;;;;12.50;11.00;;;;;24.02;45.42;101224.19;5075256;28;45677;-73
2023/06/25 00:14:44;;;;;;;;;8.00;7.25;;;;;24.00;44.88;101228.81;5073565;27;63670;-73
2023/06/25 00:17:09;;;;;;;;;9.75;8.00;;;;;23.96;45.07;101211.31;5075860;28;60483;-73
2023/06/25 00:19:35;;;;;;;;;7.75;7.25;;;;;23.95;45.12;101210.44;5073844;28;67767;-72
2023/06/25 00:22:00;;;;;;;;;10.00;8.00;;;;;23.93;45.18;101207.03;5077435;27;72062;-72
2023/06/25 00:24:25;;;;;;;;;8.00;6.75;;;;;23.91;45.16;101197.44;5065144;28;63041;-72
2023/06/25 00:26:52;;;;;;;;;13.25;8.00;;;;;23.90;45.34;101196.56;5075898;28;69783;-72
2023/06/25 00:29:18;;;;;;;;;11.50;7.00;;;;;23.90;45.49;101195.72;5074455;27;45402;-72
2023/06/25 00:31:43;;;;;;;;;10.00;8.50;;;;;23.81;45.47;101189.25;5076655;27;56211;-72
2023/06/25 00:34:09;;;;;;;;;13.25;8.50;;;;;23.78;45.69;101197.47;5059830;28;50400;-72
2023/06/25 00:36:36;;;;;;;;;11.25;8.25;;;;;23.78;45.55;101203.69;5079223;27;45248;-72
2023/06/25 00:39:05;;;;;;;;;8.50;7.00;;;;;23.75;45.76;101197.72;5071869;27;47111;-72
2023/06/25 00:41:30;;;;;;;;;11.25;9.25;;;;;23.71;45.88;101191.75;5075964;28;45772;-72
2023/06/25 00:43:57;;;;;;;;;9.50;8.00;;;;;23.70;45.82;101192.72;5076681;28;45396;-72
2023/06/25 00:46:23;;;;;;;;;9.75;9.25;;;;;23.66;45.82;101188.56;5077166;27;45571;-72
2023/06/25 00:48:49;;;;;;;;;12.75;10.50;;;;;23.64;46.08;101183.34;5071640;27;46025;-72
2023/06/25 00:51:16;;;;;;;;;8.75;8.25;;;;;23.59;45.97;101179.31;5080080;28;45227;-72
2023/06/25 00:53:42;;;;;;;;;10.75;8.25;;;;;23.61;46.29;101185.41;5056624;28;45493;-72
2023/06/25 00:56:07;;;;;;;;;8.50;8.50;;;;;23.56;46.10;101188.41;5057438;28;53829;-72
2023/06/25 00:58:37;;;;;;;;;11.50;9.00;;;;;23.55;46.00;101184.03;5073449;28;46518;-72
2023/06/25 01:01:07;;;;;;;;;9.25;9.25;;;;;23.53;46.32;101180.59;5074572;27;45960;-72
2023/06/25 01:03:39;;;;;;;;;11.00;7.25;;;;;23.53;46.20;101177.94;5073811;28;45686;-72
2023/06/25 01:06:29;;;;;;;;;10.00;8.25;;;;;23.50;46.13;101176.34;5061591;28;46048;-72
2023/06/25 01:08:55;;;;;;;;;7.50;7.50;;;;;23.49;46.27;101177.31;5079485;27;45483;-72
2023/06/25 01:11:22;;;;;;;;;9.00;5.25;;;;;23.49;46.34;101176.47;5062048;28;46040;-72
2023/06/25 01:13:47;;;;;;;;;12.25;10.00;;;;;23.46;46.66;101169.53;5078239;28;45342;-72
2023/06/25 01:16:13;;;;;;;;;10.75;9.50;;;;;23.47;46.56;101170.38;5079186;27;53988;-72
2023/06/25 01:18:39;;;;;;;;;10.50;8.25;;;;;23.45;46.57;101156.31;5064520;28;47462;-72
2023/06/25 01:21:07;;;;;;;;;10.75;8.50;;;;;23.44;46.64;101165.25;5078887;27;45835;-72
2023/06/25 01:23:36;;;;;;;;;12.00;8.50;;;;;23.43;46.65;101168.94;5055641;28;45721;-72
2023/06/25 01:26:01;;;;;;;;;8.00;7.25;;;;;23.39;46.46;101164.75;5076012;28;45503;-72
2023/06/25 01:28:27;;;;;;;;;9.00;8.75;;;;;23.38;46.50;101174.59;5075698;27;47148;-72
2023/06/25 01:30:52;;;;;;;;;10.25;8.75;;;;;23.33;46.73;101167.91;5075962;27;67756;-72
2023/06/25 01:33:22;;;;;;;;;13.00;8.00;;;;;23.28;47.02;101162.88;5056626;28;64894;-72
2023/06/25 01:35:47;;;;;;;;;13.50;8.50;;;;;23.26;46.61;101160.31;5080403;27;45172;-72
2023/06/25 01:38:13;;;;;;;;;11.25;11.25;;;;;23.26;47.03;101170.16;5072241;28;46910;-72
2023/06/25 01:40:38;;;;;;;;;14.00;8.75;;;;;23.22;47.13;101163.34;5075334;27;45526;-72
2023/06/25 01:43:04;;;;;;;;;15.00;8.25;;;;;23.23;46.81;101159.69;5072394;27;45641;-72
2023/06/25 01:45:29;;;;;;;;;11.00;9.50;;;;;23.22;46.79;101160.69;5079140;28;45533;-72
2023/06/25 01:47:55;;;;;;;;;6.00;5.25;;;;;23.20;47.21;101154.59;5073539;28;70359;-72
2023/06/25 01:50:20;;;;;;;;;11.25;6.75;;;;;23.17;47.39;101154.81;5077010;27;68904;-72
2023/06/25 01:52:45;;;;;;;;;11.00;10.00;;;;;23.17;47.31;101160.16;5075489;27;45406;-72
2023/06/25 01:55:11;;;;;;;;;11.75;9.00;;;;;23.11;46.98;101146.28;5072324;28;63599;-72
2023/06/25 01:57:36;;;;;;;;;13.50;9.75;;;;;23.12;46.94;101149.81;5059307;28;48253;-72
2023/06/25 02:00:03;;;;;;;;;11.75;9.25;;;;;23.08;47.44;101146.50;5071295;28;51648;-72
2023/06/25 02:02:29;;;;;;;;;13.75;9.00;;;;;23.07;47.17;101144.81;5079222;28;45691;-72
2023/06/25 02:04:54;;;;;;;;;11.00;9.25;;;;;23.06;47.10;101140.44;5077410;27;45419;-72
2023/06/25 02:07:20;;;;;;;;;10.00;8.25;;;;;23.05;47.03;101137.88;5078182;27;45465;-72
2023/06/25 02:09:46;;;;;;;;;10.25;10.00;;;;;23.05;47.50;101137.88;5073970;27;45316;-72
2023/06/25 02:12:11;;;;;;;;;12.00;7.75;;;;;23.01;47.10;101133.72;5076884;28;46014;-72
2023/06/25 02:14:36;;;;;;;;;16.25;9.25;;;;;22.99;47.39;101132.97;5079283;27;45360;-72
2023/06/25 02:17:02;;;;;;;;;12.25;9.25;;;;;22.96;47.54;101127.84;5080585;27;45452;-72
2023/06/25 02:19:27;;;;;;;;;9.25;7.25;;;;;22.94;47.24;101133.28;5075619;27;45648;-72
2023/06/25 02:21:52;;;;;;;;;11.50;10.00;;;;;22.93;47.55;101124.44;5078068;28;61931;-72
2023/06/25 02:24:18;;;;;;;;;12.00;9.75;;;;;22.89;47.52;101114.09;5070936;27;45407;-72
2023/06/25 02:26:43;;;;;;;;;11.50;8.00;;;;;22.88;47.46;101113.25;5067720;28;67209;-71
2023/06/25 02:29:09;;;;;;;;;16.00;10.75;;;;;22.89;47.25;101116.75;5077196;28;47015;-71
2023/06/25 02:31:34;;;;;;;;;7.75;5.75;;;;;22.86;47.60;101109.84;5057555;28;67213;-72
2023/06/25 02:33:59;;;;;;;;;11.50;7.25;;;;;22.86;47.97;101112.50;5061473;27;45354;-71
2023/06/25 02:36:25;;;;;;;;;12.25;9.75;;;;;22.86;47.72;101103.63;5078499;27;46024;-71
2023/06/25 02:38:50;;;;;;;;;11.25;7.00;;;;;22.84;47.92;101105.56;5073246;27;71173;-71
2023/06/25 02:41:15;;;;;;;;;9.75;6.75;;;;;22.85;47.78;101107.28;5074384;28;69765;-72
2023/06/25 02:43:41;;;;;;;;;6.00;6.00;;;;;22.82;47.90;101100.34;5074565;27;58488;-72
2023/06/25 02:46:06;;;;;;;;;7.25;7.00;;;;;22.82;47.65;101099.50;5074091;28;64035;-72
2023/06/25 02:48:31;;;;;;;;;4.25;2.25;;;;;22.79;47.76;101097.91;5069659;27;65535;-72
2023/06/25 02:50:57;;;;;;;;;6.25;5.00;;;;;22.77;48.12;101093.63;5077740;27;45342;-72
2023/06/25 02:53:22;;;;;;;;;5.50;5.25;;;;;22.75;47.63;101094.63;5075467;27;72391;-72
2023/06/25 02:55:47;;;;;;;;;5.25;5.25;;;;;22.72;47.94;101092.16;5058798;28;46825;-72
2023/06/25 02:58:13;;;;;;;;;8.00;5.25;;;;;22.74;47.57;101100.06;5068411;28;56193;-72
2023/06/25 03:00:38;;;;;;;;;7.50;5.75;;;;;22.68;47.78;101090.69;5074834;27;58080;-72
2023/06/25 03:03:03;;;;;;;;;8.25;6.25;;;;;22.64;47.95;101094.53;5071773;27;56266;-72
2023/06/25 03:05:28;;;;;;;;;6.50;4.75;;;;;22.63;47.76;101098.16;5075312;28;64508;-71
2023/06/25 03:07:55;;;;;;;;;5.50;5.50;;;;;22.61;47.58;101093.88;5054389;28;60901;-72
2023/06/25 03:10:26;;;;;;;;;7.25;4.75;;;;;22.60;48.38;101103.72;5058557;28;45371;-72
2023/06/25 03:12:52;;;;;;;;;4.75;4.25;;;;;22.55;48.05;101101.38;5066410;27;45484;-72
2023/06/25 03:15:17;;;;;;;;;6.75;5.50;;;;;22.55;47.96;101106.69;5072084;28;56075;-72
2023/06/25 03:17:43;;;;;;;;;5.25;5.25;;;;;22.53;48.28;101105.97;5074123;27;45307;-72
2023/06/25 03:20:09;;;;;;;;;4.25;4.00;;;;;22.50;48.54;101108.00;5074667;28;45423;-72
2023/06/25 03:22:35;;;;;;;;;5.50;5.50;;;;;22.48;48.10;101104.59;5078086;27;45497;-72
2023/06/25 03:25:01;;;;;;;;;5.75;4.25;;;;;22.40;48.56;101099.81;5074487;27;45327;-74
2023/06/25 03:27:26;;;;;;;;;6.00;4.25;;;;;22.42;48.52;101089.06;5076267;28;45255;-70
2023/06/25 03:29:51;;;;;;;;;5.75;5.50;;;;;22.40;48.35;101094.50;5072599;28;58327;-70
2023/06/25 03:32:17;;;;;;;;;5.75;5.50;;;;;22.39;48.60;101078.59;5076173;27;45442;-70
2023/06/25 03:34:42;;;;;;;;;10.00;4.75;;;;;22.40;48.71;101088.28;5072883;28;46117;-70
2023/06/25 03:37:08;;;;;;;;;6.25;5.50;;;;;22.39;48.55;101087.44;5074193;28;45289;-70
2023/06/25 03:39:33;;;;;;;;;8.00;7.00;;;;;22.39;48.83;101086.59;5071500;28;45474;-69
2023/06/25 03:41:59;;;;;;;;;7.50;5.25;;;;;22.40;49.01;101091.81;5075631;28;67096;-69
2023/06/25 03:44:24;;;;;;;;;7.75;5.00;;;;;22.41;48.58;101092.66;5075469;28;68336;-69
2023/06/25 03:46:49;;;;;;;;;8.25;4.75;;;;;22.42;48.81;101089.06;5076394;28;63714;-69
2023/06/25 03:49:14;;;;;;;;;5.00;5.00;;;;;22.40;48.73;101088.28;5069932;27;48423;-69
2023/06/25 03:51:40;;;;;;;;;6.00;4.50;;;;;22.40;48.64;101086.50;5075056;27;64502;-69
2023/06/25 03:54:05;;;;;;;;;6.25;5.25;;;;;22.39;49.09;101086.59;5056602;28;48518;-69
2023/06/25 03:56:31;;;;;;;;;8.50;5.00;;;;;22.34;48.50;101077.09;5078149;27;45362;-70
2023/06/25 03:58:56;;;;;;;;;5.75;4.00;;;;;22.36;48.83;101080.53;5060584;28;45399;-70
2023/06/25 04:01:21;;;;;;;;;8.75;8.00;;;;;22.33;48.96;101085.22;5076183;27;70785;-70
2023/06/25 04:03:46;;;;;;;;;8.50;5.25;;;;;22.30;48.93;101078.28;5077756;27;45446;-69
2023/06/25 04:06:12;;;;;;;;;7.25;6.25;;;;;22.29;49.20;101086.38;5078191;28;45323;-70
2023/06/25 04:08:40;;;;;;;;;7.50;6.00;;;;;22.27;48.95;101090.97;5074977;28;59970;-70
2023/06/25 04:11:06;;;;;;;;;7.25;6.50;;;;;22.24;49.30;101081.34;5069561;28;45549;-70
2023/06/25 04:13:31;;;;;;;;;8.25;6.25;;;;;22.23;48.60;101081.47;5072319;28;54125;-70
2023/06/25 04:15:56;;;;;;;;;7.75;7.50;;;;;22.18;49.29;101079.09;5072789;28;57027;-70
2023/06/25 04:18:22;;;;;;;;;9.50;6.00;;;;;22.19;49.26;101080.81;5075711;27;45343;-69
2023/06/25 04:20:47;;;;;;;;;9.50;5.75;;;;;22.18;49.12;101085.28;5077212;28;45594;-69
2023/06/25 04:23:12;;;;;;;;;7.00;5.50;;;;;22.16;49.33;101081.88;5073864;28;47375;-69
2023/06/25 04:25:38;;;;;;;;;7.50;7.00;;;;;22.17;49.66;101074.75;5075983;27;45352;-69
2023/06/25 04:28:03;;;;;;;;;8.25;4.75;;;;;22.17;49.48;101078.25;5072530;27;45565;-69
2023/06/25 04:30:29;;;;;;;;;8.00;6.25;;;;;22.16;49.29;101086.38;5074781;28;45603;-69
2023/06/25 04:32:54;;;;;;;;;6.00;4.50;;;;;22.14;49.35;101074.97;5057943;28;47182;-69
2023/06/25 04:35:20;;;;;;;;;14.25;9.50;;;;;22.12;49.31;101075.06;5075003;28;59187;-69
2023/06/25 04:37:45;;;;;;;;;12.00;7.75;;;;;22.12;49.11;101077.72;5054807;28;45598;-69
2023/06/25 04:40:11;;;;;;;;;10.00;8.00;;;;;22.11;49.79;101081.34;5074994;28;45461;-69
2023/06/25 04:42:36;;;;;;;;;11.00;5.75;;;;;22.09;49.58;101085.09;5067516;28;48444;-70
2023/06/25 04:45:02;;;;;;;;;9.25;6.25;;;;;22.06;49.50;101080.84;5075557;27;45377;-70
2023/06/25 04:47:27;;;;;;;;;11.00;8.00;;;;;22.07;49.66;101081.69;5088254;27;45259;-69
2023/06/25 04:49:53;;;;;;;;;8.50;6.50;;;;;22.09;49.50;101093.09;5063086;28;73900;-69
2023/06/25 04:52:19;;;;;;;;;9.00;8.00;;;;;22.11;49.88;101093.84;5078338;27;45406;-69
2023/06/25 04:54:45;;;;;;;;;7.00;5.00;;;;;22.10;49.86;101092.16;5086384;28;45302;-74
2023/06/25 04:57:10;;;;;;;;;6.25;4.75;;;;;22.10;49.44;101086.81;5059424;28;45264;-78
2023/06/25 04:59:35;;;;;;;;;7.00;3.50;;;;;22.11;49.98;101085.84;5073654;28;52045;-74
2023/06/25 05:02:01;;;;;;;;;9.25;5.00;;;;;22.15;50.00;101087.31;5074186;28;50345;-74
2023/06/25 05:04:26;;;;;;;;;6.00;6.00;;;;;22.16;49.80;101084.53;5079120;27;45166;-80
2023/06/25 05:06:51;;;;;;;;;7.00;4.50;;;;;22.23;49.68;101090.31;5077359;27;56666;-72
2023/06/25 05:09:17;;;;;;;;;8.75;5.75;;;;;22.26;50.06;101083.91;5075847;28;45469;-74
2023/06/25 05:11:42;;;;;;;;;5.75;5.75;;;;;22.29;49.76;101089.03;5076304;27;47193;-73
2023/06/25 05:14:07;;;;;;;;;7.25;5.75;;;;;22.31;49.90;101090.66;5046962;28;53065;-73
2023/06/25 05:16:33;;;;;;;;;6.50;4.50;;;;;22.37;49.85;101086.69;5076488;28;65725;-72
2023/06/25 05:18:58;;;;;;;;;6.00;6.00;;;;;22.43;50.16;101090.72;5055822;28;51681;-75
2023/06/25 05:21:24;;;;;;;;;6.25;4.00;;;;;22.44;49.83;101087.97;5072534;28;46500;-73
2023/06/25 05:24:00;;;;;;;;;7.00;6.25;;;;;22.51;49.67;101091.06;5069121;28;45481;-73
2023/06/25 05:26:26;;;;;;;;;7.75;4.50;;;;;22.54;49.70;101082.81;5070708;27;45504;-76
2023/06/25 05:28:51;;;;;;;;;5.75;4.00;;;;;22.61;49.62;101088.56;5072876;27;45513;-77
2023/06/25 05:31:17;;;;;;;;;8.00;5.75;;;;;22.69;49.41;101086.19;5076365;27;47516;-77
2023/06/25 05:33:42;;;;;;;;;9.00;7.50;;;;;22.74;49.58;101097.41;5072202;28;60683;-76
2023/06/25 05:36:07;;;;;;;;;7.75;6.50;;;;;22.79;49.92;101095.25;5072197;27;69355;-76
2023/06/25 05:38:32;;;;;;;;;12.00;5.75;;;;;22.86;49.53;101091.16;5061501;28;55133;-76
2023/06/25 05:40:58;;;;;;;;;5.75;5.25;;;;;22.91;48.93;101085.47;5077325;27;69577;-77
2023/06/25 05:43:23;;;;;;;;;7.25;4.50;;;;;22.96;49.38;101087.81;5065467;28;66942;-78
2023/06/25 05:45:48;;;;;;;;;9.00;4.75;;;;;23.03;48.88;101086.38;5066607;28;46488;-80
2023/06/25 05:48:14;;;;;;;;;6.00;4.50;;;;;23.09;48.79;101088.66;5075676;28;67362;-78
2023/06/25 05:50:39;;;;;;;;;8.25;6.75;;;;;23.15;48.43;101085.50;5078073;28;46275;-77
2023/06/25 05:53:04;;;;;;;;;6.25;4.25;;;;;23.21;48.69;101084.19;5062054;28;67319;-78
2023/06/25 05:55:30;;;;;;;;;7.00;4.00;;;;;23.27;47.91;101081.94;5076838;28;65864;-79
2023/06/25 05:57:55;;;;;;;;;7.25;6.25;;;;;23.31;47.95;101080.72;5079407;28;50888;-78
2023/06/25 06:00:22;;;;;;;;;6.00;5.75;;;;;23.42;47.85;101084.41;5078974;28;55531;-78
2023/06/25 06:02:47;;;;;;;;;7.25;5.50;;;;;23.48;47.79;101092.81;5079732;28;45351;-77
2023/06/25 06:05:12;;;;;;;;;7.00;5.00;;;;;23.53;47.80;101084.44;5069226;28;64187;-78
2023/06/25 06:07:38;;;;;;;;;5.50;5.25;;;;;23.60;47.60;101082.16;5075881;27;67923;-78
2023/06/25 06:10:03;;;;;;;;;39.50;30.25;;;;;23.66;47.64;101082.53;5071362;28;62099;-78
2023/06/25 06:12:29;;;;;;;;;14.50;12.25;;;;;23.74;46.98;101086.44;5078082;28;45688;-78
2023/06/25 06:14:55;;;;;;;;;42.25;34.25;;;;;23.82;47.29;101090.25;5062204;28;45335;-78
2023/06/25 06:17:20;;;;;;;;;9.50;9.50;;;;;23.90;46.78;101094.16;5077422;28;45357;-78
2023/06/25 06:19:46;;;;;;;;;7.00;6.50;;;;;23.97;46.83;101087.34;5075902;28;46513;-79
2023/06/25 06:22:12;;;;;;;;;8.00;6.25;;;;;24.01;46.66;101079.00;5074843;28;45361;-79
2023/06/25 06:24:38;;;;;;;;;9.75;8.25;;;;;24.10;46.36;101074.75;5078419;28;45453;-79
2023/06/25 06:27:04;;;;;;;;;6.50;6.50;;;;;24.18;46.04;101071.44;5078563;27;45396;-78
2023/06/25 06:29:29;;;;;;;;;6.75;6.00;;;;;24.23;46.26;101069.25;5076884;28;47977;-79
2023/06/25 06:31:54;;;;;;;;;10.00;6.00;;;;;24.31;46.15;101077.53;5075445;28;71759;-79
2023/06/25 06:34:20;;;;;;;;;9.00;7.00;;;;;24.37;46.02;101069.00;5076688;27;51855;-79
2023/06/25 06:36:45;;;;;;;;;10.25;6.00;;;;;24.45;45.59;101073.72;5060972;28;45514;-79
2023/06/25 06:39:10;;;;;;;;;5.75;5.75;;;;;24.51;45.41;101069.75;5076775;28;65095;-79
2023/06/25 06:41:36;;;;;;;;;8.50;6.00;;;;;24.57;45.15;101067.44;5057076;28;62433;-79
2023/06/25 06:44:15;;;;;;;;;6.25;5.00;;;;;24.66;45.41;101073.03;5076585;28;45395;-79
2023/06/25 06:46:42;;;;;;;;;4.00;4.00;;;;;24.73;44.75;101068.88;5073462;27;45967;-78
2023/06/25 06:49:07;;;;;;;;;7.75;5.50;;;;;24.80;44.55;101062.88;5068272;28;45722;-79
2023/06/25 06:51:33;;;;;;;;;7.00;6.00;;;;;24.87;44.72;101068.59;5078946;27;45279;-79
2023/06/25 06:53:58;;;;;;;;;9.00;6.00;;;;;24.94;44.45;101067.09;5073928;28;64788;-79
2023/06/25 06:56:23;;;;;;;;;7.00;7.00;;;;;25.00;44.35;101069.28;5070833;27;67779;-79
2023/06/25 06:58:49;;;;;;;;;8.50;5.25;;;;;25.05;44.26;101065.38;5080928;27;72777;-79
2023/06/25 07:01:14;;;;;;;;;6.75;5.00;;;;;25.11;44.09;101062.19;5079202;27;45282;-79
2023/06/25 07:03:39;;;;;;;;;9.50;8.50;;;;;25.10;44.11;101050.59;5073307;28;57032;-79
2023/06/25 07:06:05;;;;;;;;;5.50;5.50;;;;;25.20;43.99;101061.41;5078593;27;45602;-79
2023/06/25 07:08:30;;;;;;;;;7.00;5.25;;;;;25.25;43.60;101061.91;5074424;28;55033;-79
2023/06/25 07:10:55;;;;;;;;;10.00;6.25;;;;;25.29;43.61;101059.81;5075524;27;68569;-79
2023/06/25 07:13:21;;;;;;;;;8.75;7.75;;;;;25.34;43.34;101057.63;5078276;27;45314;-79
2023/06/25 07:15:46;;;;;;;;;6.50;6.00;;;;;25.39;43.32;101053.56;5079836;27;62881;-79
2023/06/25 07:18:11;;;;;;;;;8.75;5.75;;;;;25.44;42.75;101061.19;5079575;27;69396;-79
2023/06/25 07:20:37;;;;;;;;;7.75;6.25;;;;;25.49;43.28;101058.13;5069522;27;63659;-79
2023/06/25 07:23:02;;;;;;;;;8.25;7.00;;;;;25.53;42.75;101054.19;5078688;28;58598;-80
2023/06/25 07:25:27;;;;;;;;;5.75;5.75;;;;;25.58;42.44;101060.00;5063837;27;61994;-79
2023/06/25 07:27:53;;;;;;;;;7.00;6.25;;;;;25.63;42.50;101059.63;5078505;28;69918;-79
2023/06/25 07:30:18;;;;;;;;;6.75;5.50;;;;;25.68;42.56;101058.25;5072374;27;45285;-79
2023/06/25 07:32:44;;;;;;;;;6.75;6.50;;;;;25.74;41.82;101067.59;5072293;27;45322;-79
2023/06/25 07:35:09;;;;;;;;;9.00;8.25;;;;;25.79;42.46;101057.31;5058392;28;66250;-79
2023/06/25 07:37:34;;;;;;;;;7.75;6.75;;;;;25.85;41.90;101063.97;5081520;27;46599;-79
2023/06/25 07:40:00;;;;;;;;;8.00;8.00;;;;;25.91;42.03;101058.09;5080460;27;45350;-79
2023/06/25 07:42:25;;;;;;;;;11.50;7.00;;;;;25.97;41.92;101062.09;5075820;28;46691;-79
2023/06/25 07:44:50;;;;;;;;;10.25;6.75;;;;;26.01;41.97;101056.34;5076842;28;68595;-79
2023/06/25 07:47:16;;;;;;;;;7.00;6.00;;;;;26.06;41.15;101047.88;5077899;27;47679;-79
2023/06/25 07:49:41;;;;;;;;;5.25;3.75;;;;;26.10;41.40;101049.31;5072343;28;45370;-79
2023/06/25 07:52:07;;;;;;;;;8.75;7.00;;;;;26.19;41.42;101053.00;5077821;28;53324;-79
2023/06/25 07:54:32;;;;;;;;;7.50;6.00;;;;;26.24;41.03;101048.09;5073891;28;45549;-79
2023/06/25 07:56:58;;;;;;;;;7.75;6.00;;;;;26.29;40.93;101045.84;5078585;28;47989;-79
2023/06/25 07:59:23;;;;;;;;;7.50;7.00;;;;;26.30;40.93;101037.66;5065188;28;45491;-79
2023/06/25 08:01:48;;;;;;;;;9.75;7.00;;;;;26.40;41.09;101042.22;5077624;27;45502;-79
2023/06/25 08:04:14;;;;;;;;;7.00;7.00;;;;;26.46;40.50;101039.84;5076586;28;59624;-79
2023/06/25 08:06:39;;;;;;;;;10.25;7.75;;;;;26.51;40.29;101034.91;5060354;28;46973;-79
2023/06/25 08:09:04;;;;;;;;;9.25;7.25;;;;;26.58;39.98;101037.03;5077929;27;45376;-79
2023/06/25 08:11:30;;;;;;;;;11.50;8.25;;;;;26.63;40.18;101037.50;5077527;28;45423;-79
2023/06/25 08:13:55;;;;;;;;;10.00;9.75;;;;;26.71;40.41;101040.34;5058145;28;46150;-78
2023/06/25 08:16:22;;;;;;;;;9.50;7.00;;;;;26.78;39.81;101037.97;5053897;28;76426;-78
2023/06/25 08:18:48;;;;;;;;;8.75;7.25;;;;;26.82;39.72;101036.69;5055949;28;45712;-79
2023/06/25 08:21:13;;;;;;;;;11.50;8.00;;;;;26.89;39.01;101041.34;5077238;27;45398;-79
2023/06/25 08:23:38;;;;;;;;;11.00;6.00;;;;;26.94;39.93;101040.94;5077884;27;45399;-79
2023/06/25 08:26:04;;;;;;;;;8.75;8.00;;;;;27.00;39.47;101031.44;5076565;28;51498;-79
2023/06/25 08:28:29;;;;;;;;;11.25;9.00;;;;;27.05;39.81;101021.13;5075991;28;45488;-79
2023/06/25 08:30:55;;;;;;;;;9.50;8.25;;;;;27.09;39.30;101026.09;5074301;27;66475;-79
2023/06/25 08:33:20;;;;;;;;;9.75;9.50;;;;;27.13;39.52;101020.41;5076972;27;52113;-78
2023/06/25 08:35:46;;;;;;;;;10.25;10.25;;;;;27.16;39.37;101017.44;5071258;28;62314;-78
2023/06/25 08:38:11;;;;;;;;;12.50;9.00;;;;;27.24;39.20;101022.97;5072575;28;45469;-78
2023/06/25 08:40:37;;;;;;;;;12.00;9.75;;;;;27.30;38.47;101016.19;5074042;28;46470;-78
2023/06/25 08:43:03;;;;;;;;;9.75;8.25;;;;;27.33;38.73;101019.44;5077384;28;69272;-78
2023/06/25 08:45:29;;;;;;;;;9.75;8.75;;;;;27.41;38.62;101021.41;5076171;28;46234;-78
2023/06/25 08:47:56;;;;;;;;;10.75;9.00;;;;;27.44;39.20;101013.91;5078919;27;45324;-78
2023/06/25 08:50:21;;;;;;;;;9.25;8.25;;;;;27.50;38.29;101011.63;5060091;28;45235;-78
2023/06/25 08:52:47;;;;;;;;;8.25;7.50;;;;;27.56;38.50;101011.91;5071048;28;45569;-78
2023/06/25 08:55:13;;;;;;;;;11.25;9.00;;;;;27.62;38.48;100997.88;5076343;28;66599;-79
2023/06/25 08:57:39;;;;;;;;;13.00;9.25;;;;;27.68;38.19;100999.13;5071620;27;45639;-79
2023/06/25 09:00:06;;;;;;;;;10.25;9.25;;;;;27.76;38.03;101001.09;5057240;28;45404;-78
2023/06/25 09:02:31;;;;;;;;;10.00;8.75;;;;;27.81;37.79;101006.88;5063645;28;45472;-79
2023/06/25 09:05:07;;;;;;;;;10.25;9.25;;;;;27.86;37.78;100999.22;5080623;27;46256;-77
2023/06/25 09:07:43;;;;;;;;;8.00;8.00;;;;;27.94;36.25;101004.75;5082253;27;45922;-77
2023/06/25 09:10:08;;;;;;;;;8.50;8.50;;;;;28.01;37.20;101004.97;5059131;28;45388;-77
2023/06/25 09:12:34;;;;;;;;;9.00;8.00;;;;;28.05;36.96;101002.81;5080037;27;45323;-77
2023/06/25 09:14:59;;;;;;;;;8.50;7.75;;;;;28.11;36.38;100996.88;5073231;27;60184;-77
2023/06/25 09:17:25;;;;;;;;;8.50;8.50;;;;;28.14;36.05;100986.66;5081151;27;45269;-77
2023/06/25 09:19:51;;;;;;;;;10.00;10.00;;;;;28.18;35.96;100985.34;5077389;28;45342;-77
2023/06/25 09:22:16;;;;;;;;;9.50;8.00;;;;;28.26;36.33;100992.69;5079318;28;45463;-77
2023/06/25 09:24:51;;;;;;;;;11.75;10.75;;;;;28.32;36.31;100986.69;5068604;28;47465;-77
2023/06/25 09:27:19;;;;;;;;;12.00;9.50;;;;;28.43;36.20;100987.47;5078079;28;45879;-77
2023/06/25 09:29:45;;;;;;;;;10.50;9.25;;;;;28.46;36.03;100981.78;5070838;27;45375;-77
2023/06/25 09:32:11;;;;;;;;;8.75;7.50;;;;;28.53;35.59;100986.41;5079197;27;53366;-77
2023/06/25 09:34:37;;;;;;;;;9.75;8.00;;;;;28.58;35.67;100977.91;5078360;27;45537;-78
2023/06/25 09:37:03;;;;;;;;;11.00;8.75;;;;;28.66;35.98;100974.44;5079522;28;45354;-77
2023/06/25 09:39:30;;;;;;;;;9.50;8.50;;;;;28.73;34.73;100978.22;5068200;27;45240;-77
2023/06/25 09:41:55;;;;;;;;;11.25;9.50;;;;;28.80;34.56;100976.59;5077600;28;45387;-77
2023/06/25 09:44:22;;;;;;;;;8.75;7.75;;;;;28.85;34.77;100976.97;5079853;27;46410;-77
2023/06/25 09:46:50;;;;;;;;;9.00;9.00;;;;;28.91;35.04;100972.81;5071641;28;45291;-77
2023/06/25 09:49:19;;;;;;;;;11.00;10.50;;;;;28.95;34.93;100966.97;5071011;27;45514;-77
2023/06/25 09:52:12;;;;;;;;;8.75;8.00;;;;;29.01;34.28;100972.72;5077316;28;45406;-77
2023/06/25 09:54:39;;;;;;;;;11.00;10.50;;;;;29.06;34.82;100978.50;5071678;27;47062;-77
2023/06/25 09:57:09;;;;;;;;;9.25;8.25;;;;;29.10;34.11;100961.84;5070485;28;45716;-77
2023/06/25 09:59:34;;;;;;;;;11.50;10.25;;;;;29.12;34.57;100962.53;5066884;28;45543;-77
2023/06/25 10:02:00;;;;;;;;;9.00;8.50;;;;;29.18;34.49;100958.41;5079848;27;45614;-77
2023/06/25 10:04:25;;;;;;;;;12.00;9.75;;;;;29.22;34.33;100953.56;5079126;27;46076;-77
2023/06/25 10:06:52;;;;;;;;;9.25;8.25;;;;;29.25;34.07;100959.47;5079589;27;50961;-77
2023/06/25 10:09:17;;;;;;;;;9.50;8.00;;;;;29.30;34.04;100951.72;5074930;28;45426;-77
2023/06/25 10:11:52;;;;;;;;;11.00;9.50;;;;;29.37;34.03;100945.72;5070395;27;67142;-78
2023/06/25 10:14:18;;;;;;;;;8.75;7.75;;;;;29.41;33.76;100947.94;5075045;28;46780;-78
2023/06/25 10:16:52;;;;;;;;;11.50;10.00;;;;;29.45;33.66;100938.53;5071190;27;45299;-79
2023/06/25 10:19:26;;;;;;;;;10.75;8.50;;;;;29.52;32.59;100942.25;5062735;28;45406;-78
2023/06/25 10:22:12;;;;;;;;;9.00;8.50;;;;;29.56;32.54;100934.69;5075514;27;45516;-78
2023/06/25 10:24:41;;;;;;;;;10.75;9.00;;;;;29.59;32.87;100939.78;5069219;27;46211;-78
2023/06/25 10:27:25;;;;;;;;;11.00;9.75;;;;;29.62;32.91;100934.03;5060922;28;45278;-78
2023/06/25 10:29:52;;;;;;;;;9.00;8.50;;;;;29.68;32.58;100940.66;5076807;27;45516;-78
2023/06/25 10:32:27;;;;;;;;;11.75;9.00;;;;;29.73;32.60;100941.03;5076885;27;45587;-78
2023/06/25 10:34:59;;;;;;;;;9.00;8.50;;;;;29.77;31.02;100947.81;5077913;27;47236;-78
2023/06/25 10:37:32;;;;;;;;;10.50;9.00;;;;;29.79;32.17;100935.00;5058778;28;45645;-78
2023/06/25 10:40:06;;;;;;;;;11.50;10.50;;;;;29.82;31.91;100937.38;5071887;27;45425;-78
2023/06/25 10:42:32;;;;;;;;;10.25;8.75;;;;;29.89;32.44;100937.59;5077129;28;45503;-79
2023/06/25 10:44:59;;;;;;;;;11.75;8.25;;;;;29.93;32.22;100940.81;5077711;27;46213;-79
2023/06/25 10:47:24;;;;;;;;;9.00;8.75;;;;;29.96;32.26;100933.22;5062823;28;45316;-78
2023/06/25 10:49:49;;;;;;;;;9.25;8.75;;;;;30.00;32.12;100931.03;5078318;27;56202;-79
2023/06/25 10:52:15;;;;;;;;;10.25;7.75;;;;;30.03;32.68;100920.75;5072117;28;45453;-78
2023/06/25 10:54:40;;;;;;;;;12.25;9.50;;;;;30.06;32.44;100917.72;5077805;28;67607;-78
2023/06/25 10:57:06;;;;;;;;;10.75;10.00;;;;;30.10;31.82;100916.38;5071973;28;67981;-78
2023/06/25 10:59:31;;;;;;;;;11.00;9.00;;;;;30.14;31.73;100910.63;5074432;27;45546;-78
2023/06/25 11:02:17;;;;;;;;;10.50;9.50;;;;;30.20;32.04;100918.09;5078089;28;45477;-79
2023/06/25 11:04:52;;;;;;;;;10.00;9.00;;;;;30.26;31.66;100912.00;5055650;28;48398;-78
2023/06/25 11:07:22;;;;;;;;;12.00;10.50;;;;;30.26;31.28;100895.81;5072054;27;45423;-79
2023/06/25 11:09:54;;;;;;;;;8.25;8.00;;;;;30.32;29.49;100915.94;5077380;28;45451;-77
2023/06/25 11:12:20;;;;;;;;;11.75;10.00;;;;;30.35;30.72;100912.91;5076340;27;45475;-78
2023/06/25 11:14:45;;;;;;;;;10.75;9.75;;;;;30.36;30.35;100911.91;5071882;28;47084;-79
2023/06/25 11:17:14;;;;;;;;;11.25;10.25;;;;;30.37;30.96;100910.91;5060889;28;45542;-78